createdAt,value
2019-05-25T00:02:48.317Z,9.20
2019-05-25T00:05:38.705Z,9.40
2019-05-25T00:08:28.290Z,9.17
2019-05-25T00:11:17.915Z,8.90
2019-05-25T00:14:29.518Z,9.00
2019-05-25T00:17:19.715Z,10.03
2019-05-25T00:20:09.862Z,10.67
2019-05-25T00:22:59.409Z,10.30
2019-05-25T00:25:48.920Z,9.50
2019-05-25T00:28:38.501Z,10.50
2019-05-25T00:31:30.505Z,11.23
2019-05-25T00:34:01.217Z,14.13
2019-05-25T00:36:51.133Z,12.93
2019-05-25T00:42:40.065Z,9.43
2019-05-25T00:45:12.923Z,12.60
2019-05-25T00:48:04.023Z,11.10
2019-05-25T00:50:53.635Z,8.67
2019-05-25T00:53:35.206Z,9.40
2019-05-25T00:58:59.824Z,9.00
2019-05-25T01:04:25.373Z,9.77
2019-05-25T01:07:01.798Z,8.80
2019-05-25T01:09:55.567Z,9.57
2019-05-25T01:12:51.167Z,7.83
2019-05-25T01:15:38.141Z,10.53
2019-05-25T01:18:28.246Z,10.43
2019-05-25T01:21:26.937Z,11.27
2019-05-25T01:32:34.499Z,10.20
2019-05-25T01:35:16.219Z,9.07
2019-05-25T01:38:06.081Z,9.80
2019-05-25T01:40:55.584Z,9.53
2019-05-25T01:43:46.869Z,9.40
2019-05-25T01:46:17.542Z,8.80
2019-05-25T01:48:48.228Z,8.00
2019-05-25T01:51:37.689Z,10.43
2019-05-25T01:54:27.230Z,10.57
2019-05-25T01:56:57.795Z,11.10
2019-05-25T01:59:28.541Z,9.30
2019-05-25T02:02:11.022Z,9.80
2019-05-25T02:04:52.431Z,10.80
2019-05-25T02:07:34.766Z,9.27
2019-05-25T02:10:17.202Z,11.57
2019-05-25T02:12:47.995Z,7.63
2019-05-25T02:15:37.630Z,8.50
2019-05-25T02:18:27.233Z,9.73
2019-05-25T02:21:16.994Z,9.53
2019-05-25T02:23:47.724Z,8.50
2019-05-25T02:26:37.302Z,8.23
2019-05-25T02:29:26.695Z,8.53
2019-05-25T02:31:57.669Z,8.50
2019-05-25T02:34:47.293Z,9.57
2019-05-25T02:37:37.709Z,12.57
2019-05-25T02:40:27.465Z,7.53
2019-05-25T02:43:18.132Z,8.80
2019-05-25T02:46:08.253Z,10.57
2019-05-25T02:48:57.926Z,9.83
2019-05-25T02:51:47.916Z,11.83
2019-05-25T02:54:38.020Z,9.90
2019-05-25T02:57:28.074Z,9.80
2019-05-25T03:00:18.011Z,12.70
2019-05-25T03:03:08.798Z,9.33
2019-05-25T03:05:58.925Z,12.00
2019-05-25T03:08:49.629Z,12.33
2019-05-25T03:11:59.866Z,10.50
2019-05-25T03:14:49.579Z,11.73
2019-05-25T03:17:41.572Z,9.27
2019-05-25T03:20:31.271Z,13.30
2019-05-25T03:23:02.062Z,10.97
2019-05-25T03:25:49.620Z,12.07
2019-05-25T03:28:16.734Z,14.50
2019-05-25T03:30:47.600Z,9.27
2019-05-25T03:33:37.176Z,10.10
2019-05-25T03:36:27.206Z,10.50
2019-05-25T03:39:17.098Z,11.07
2019-05-25T03:42:07.461Z,12.37
2019-05-25T03:44:57.420Z,10.50
2019-05-25T03:47:47.231Z,11.33
2019-05-25T03:50:37.341Z,11.07
2019-05-25T03:53:27.308Z,10.83
2019-05-25T03:56:16.928Z,10.43
2019-05-25T03:59:06.955Z,9.03
2019-05-25T04:01:56.557Z,10.00
2019-05-25T04:04:46.577Z,10.07
2019-05-25T04:07:36.523Z,13.80
2019-05-25T04:10:26.238Z,10.50
2019-05-25T04:13:15.872Z,9.13
2019-05-25T04:19:14.477Z,13.67
2019-05-25T04:22:04.447Z,11.70
2019-05-25T04:24:55.379Z,11.50
2019-05-25T04:27:44.990Z,11.27
2019-05-25T04:30:34.911Z,10.03
2019-05-25T04:33:24.529Z,10.17
2019-05-25T04:36:14.518Z,10.90
2019-05-25T04:39:24.259Z,10.80
2019-05-25T04:41:55.041Z,11.30
2019-05-25T04:44:45.897Z,11.63
2019-05-25T04:47:35.858Z,10.60
2019-05-25T04:50:16.460Z,12.30
2019-05-25T04:53:06.083Z,9.77
2019-05-25T04:55:55.906Z,9.73
2019-05-25T04:58:45.849Z,8.90
2019-05-25T05:01:35.452Z,9.57
2019-05-25T05:04:25.124Z,10.03
2019-05-25T05:07:14.720Z,9.63
2019-05-25T05:10:04.605Z,10.50
2019-05-25T05:12:54.201Z,7.03
2019-05-25T05:15:44.276Z,7.87
2019-05-25T05:18:33.946Z,11.13
2019-05-25T05:21:23.936Z,10.90
2019-05-25T05:24:13.574Z,9.57
2019-05-25T05:26:55.375Z,9.97
2019-05-25T05:29:35.890Z,9.67
2019-05-25T05:32:27.908Z,8.10
2019-05-25T05:35:17.181Z,9.17
2019-05-25T05:37:49.214Z,8.07
2019-05-25T05:40:57.963Z,8.07
2019-05-25T05:43:48.407Z,9.40
2019-05-25T05:46:43.063Z,8.57
2019-05-25T05:49:14.445Z,9.33
2019-05-25T05:52:08.746Z,8.27
2019-05-25T05:55:00.150Z,8.40
2019-05-25T05:57:49.645Z,7.80
2019-05-25T06:00:45.760Z,7.70
2019-05-25T06:03:16.819Z,7.70
2019-05-25T06:06:09.314Z,8.60
2019-05-25T06:08:42.053Z,12.03
2019-05-25T06:11:12.931Z,9.23
2019-05-25T06:14:03.663Z,7.50
2019-05-25T06:19:39.745Z,9.33
2019-05-25T06:22:10.655Z,7.70
2019-05-25T06:25:06.101Z,8.87
2019-05-25T06:27:37.091Z,9.43
2019-05-25T06:30:10.962Z,10.33
2019-05-25T06:32:43.290Z,8.23
2019-05-25T06:35:32.984Z,9.07
2019-05-25T06:38:03.804Z,8.53
2019-05-25T06:40:53.557Z,9.00
2019-05-25T06:43:24.619Z,9.03
2019-05-25T06:45:55.315Z,11.90
2019-05-25T06:48:26.578Z,9.83
2019-05-25T06:51:25.872Z,9.13
2019-05-25T06:54:08.516Z,8.23
2019-05-25T06:56:39.581Z,9.87
2019-05-25T06:59:10.471Z,9.57
2019-05-25T07:01:44.100Z,7.50
2019-05-25T07:04:34.465Z,7.20
2019-05-25T07:07:45.603Z,8.97
2019-05-25T07:10:38.451Z,5.90
2019-05-25T07:13:15.107Z,7.30
2019-05-25T07:16:06.224Z,6.40
2019-05-25T07:18:37.565Z,10.13
2019-05-25T07:21:08.806Z,6.17
2019-05-25T07:23:39.815Z,8.60
2019-05-25T07:26:29.752Z,6.47
2019-05-25T07:29:01.610Z,6.10
2019-05-25T07:31:53.737Z,8.93
2019-05-25T07:34:45.967Z,7.00
2019-05-25T07:37:38.673Z,8.37
2019-05-25T07:40:10.494Z,6.17
2019-05-25T07:43:00.208Z,7.30
2019-05-25T07:45:31.428Z,5.50
2019-05-25T07:51:10.835Z,6.20
2019-05-25T07:54:19.455Z,8.40
2019-05-25T07:56:50.411Z,5.77
2019-05-25T07:59:40.047Z,6.40
2019-05-25T08:02:10.924Z,8.43
2019-05-25T08:07:51.941Z,7.30
2019-05-25T08:10:22.864Z,8.37
2019-05-25T08:12:53.721Z,7.27
2019-05-25T08:15:43.655Z,7.47
2019-05-25T08:18:14.758Z,7.73
2019-05-25T08:20:47.447Z,7.63
2019-05-25T08:23:37.324Z,9.10
2019-05-25T08:26:27.173Z,7.50
2019-05-25T08:28:58.365Z,7.53
2019-05-25T08:31:34.113Z,8.43
2019-05-25T08:34:04.961Z,8.37
2019-05-25T08:36:35.788Z,7.33
2019-05-25T08:39:09.069Z,9.30
2019-05-25T08:41:39.792Z,10.40
2019-05-25T08:44:21.082Z,9.03
2019-05-25T08:46:55.635Z,8.17
2019-05-25T08:52:47.842Z,6.83
2019-05-25T08:55:20.733Z,7.50
2019-05-25T08:58:10.293Z,6.73
2019-05-25T09:00:41.063Z,10.60
2019-05-25T09:03:12.186Z,9.13
2019-05-25T09:05:43.025Z,7.43
2019-05-25T09:08:32.687Z,7.03
2019-05-25T09:11:03.359Z,7.33
2019-05-25T09:13:34.868Z,6.73
2019-05-25T09:16:28.251Z,6.77
2019-05-25T09:25:26.153Z,8.77
2019-05-25T09:27:59.226Z,8.60
2019-05-25T09:30:51.684Z,7.23
2019-05-25T09:33:27.225Z,7.77
2019-05-25T09:36:19.676Z,9.20
2019-05-25T09:41:56.273Z,6.83
2019-05-25T09:44:38.689Z,7.63
2019-05-25T09:47:11.625Z,9.27
2019-05-25T09:50:02.926Z,8.93
2019-05-25T09:52:53.187Z,7.90
2019-05-25T09:58:59.935Z,7.97
2019-05-25T10:05:20.521Z,9.03
2019-05-25T10:08:24.283Z,8.37
2019-05-25T10:10:54.058Z,8.07
2019-05-25T10:13:53.915Z,9.67
2019-05-25T10:23:25.627Z,7.87
2019-05-25T10:26:54.530Z,7.47
2019-05-25T10:29:53.336Z,8.30
2019-05-25T10:35:44.578Z,9.80
2019-05-25T10:38:20.857Z,10.10
2019-05-25T10:44:18.674Z,9.53
2019-05-25T10:49:43.148Z,8.40
2019-05-25T10:52:54.811Z,9.10
2019-05-25T10:55:50.622Z,7.97
2019-05-25T10:59:00.991Z,9.40
2019-05-25T11:01:55.113Z,6.00
2019-05-25T11:07:42.550Z,6.30
2019-05-25T11:10:33.655Z,5.00
2019-05-25T11:13:05.558Z,4.30
2019-05-25T11:15:36.955Z,5.90
2019-05-25T11:18:09.983Z,3.97
2019-05-25T11:20:40.903Z,4.17
2019-05-25T11:23:31.275Z,5.30
2019-05-25T11:26:21.048Z,5.00
2019-05-25T11:28:51.803Z,2.77
2019-05-25T11:31:22.493Z,4.53
2019-05-25T11:34:03.850Z,2.60
2019-05-25T11:36:45.294Z,2.60
2019-05-25T11:39:26.788Z,4.87
2019-05-25T11:41:57.724Z,3.07
2019-05-25T11:44:28.539Z,3.43
2019-05-25T11:46:59.340Z,4.97
2019-05-25T11:49:33.202Z,4.50
2019-05-25T11:52:05.033Z,3.00
2019-05-25T11:54:36.259Z,3.97
2019-05-25T11:57:07.150Z,4.40
2019-05-25T11:59:57.083Z,7.37
2019-05-25T12:02:27.797Z,5.53
2019-05-25T12:04:58.711Z,7.73
2019-05-25T12:07:44.491Z,7.87
2019-05-25T12:10:34.211Z,8.07
2019-05-25T12:13:42.600Z,10.27
2019-05-25T12:16:16.362Z,6.70
2019-05-25T12:19:06.095Z,9.57
2019-05-25T12:21:47.066Z,5.23
2019-05-25T12:24:36.671Z,7.37
2019-05-25T12:27:10.195Z,4.90
2019-05-25T12:30:00.567Z,5.50
2019-05-25T12:32:31.503Z,9.53
2019-05-25T12:35:02.487Z,5.10
2019-05-25T12:37:34.659Z,6.93
2019-05-25T12:40:06.116Z,6.50
2019-05-25T12:42:37.046Z,6.97
2019-05-25T12:45:28.449Z,6.23
2019-05-25T12:48:19.038Z,6.70
2019-05-25T12:51:10.139Z,8.40
2019-05-25T12:53:59.890Z,6.13
2019-05-25T12:56:30.747Z,5.40
2019-05-25T12:59:20.740Z,6.50
2019-05-25T13:02:12.431Z,4.60
2019-05-25T13:04:45.356Z,6.20
2019-05-25T13:07:16.277Z,4.77
2019-05-25T13:10:06.265Z,5.00
2019-05-25T13:12:57.821Z,5.00
2019-05-25T13:15:47.503Z,5.20
2019-05-25T13:18:39.589Z,5.30
2019-05-25T13:21:51.341Z,6.43
2019-05-25T13:24:22.965Z,5.97
2019-05-25T13:26:53.888Z,5.93
2019-05-25T13:29:43.904Z,4.30
2019-05-25T13:32:16.185Z,4.50
2019-05-25T13:34:47.093Z,9.00
2019-05-25T13:37:18.494Z,6.03
2019-05-25T13:40:09.622Z,6.47
2019-05-25T13:43:05.831Z,6.50
2019-05-25T13:48:50.239Z,7.17
2019-05-25T13:54:29.939Z,6.40
2019-05-25T13:57:08.139Z,7.87
2019-05-25T13:59:58.080Z,6.37
2019-05-25T14:02:28.960Z,7.63
2019-05-25T14:05:18.731Z,7.17
2019-05-25T14:07:51.033Z,5.67
2019-05-25T14:10:22.270Z,6.60
2019-05-25T14:13:12.064Z,6.70
2019-05-25T14:15:45.088Z,6.50
2019-05-25T14:18:34.651Z,10.70
2019-05-25T14:21:24.540Z,9.60
2019-05-25T14:23:55.652Z,10.17
2019-05-25T14:26:50.781Z,14.67
2019-05-25T14:32:18.847Z,17.27
2019-05-25T14:34:50.862Z,36.67
2019-05-25T14:40:28.029Z,27.13
2019-05-25T14:42:59.738Z,28.17
2019-05-25T14:45:53.237Z,19.13
2019-05-25T14:48:27.131Z,19.33
2019-05-25T14:51:17.462Z,19.03
2019-05-25T14:53:48.968Z,22.30
2019-05-25T14:56:22.263Z,17.03
2019-05-25T14:59:15.323Z,16.37
2019-05-25T15:02:01.468Z,25.37
2019-05-25T15:04:38.219Z,20.57
2019-05-25T15:07:09.147Z,19.07
2019-05-25T15:09:55.650Z,18.40
2019-05-25T15:12:27.131Z,19.63
2019-05-25T15:14:58.173Z,16.97
2019-05-25T15:17:50.415Z,15.93
2019-05-25T15:20:21.338Z,17.63
2019-05-25T15:22:54.418Z,17.63
2019-05-25T15:25:25.617Z,16.87
2019-05-25T15:27:56.600Z,15.60
2019-05-25T15:31:07.857Z,16.07
2019-05-25T15:36:20.423Z,14.97
2019-05-25T15:38:51.964Z,13.43
2019-05-25T15:41:44.811Z,15.97
2019-05-25T15:44:34.793Z,12.40
2019-05-25T15:47:25.838Z,13.30
2019-05-25T15:50:04.412Z,10.27
2019-05-25T15:52:56.812Z,11.03
2019-05-25T15:55:46.827Z,11.20
2019-05-25T15:58:56.603Z,11.07
2019-05-25T16:05:14.603Z,7.73
2019-05-25T16:08:27.671Z,7.93
2019-05-25T16:16:59.596Z,11.03
2019-05-25T16:22:30.465Z,12.47
2019-05-25T16:25:02.849Z,13.50
2019-05-25T16:27:55.484Z,11.77
2019-05-25T16:30:31.085Z,9.23
2019-05-25T16:33:11.605Z,8.57
2019-05-25T16:35:57.764Z,11.20
2019-05-25T16:38:28.658Z,7.30
2019-05-25T16:44:34.327Z,9.10
2019-05-25T16:47:24.164Z,9.03
2019-05-25T16:49:55.655Z,10.80
2019-05-25T16:52:49.229Z,9.70
2019-05-25T16:55:21.957Z,11.53
2019-05-25T16:57:53.149Z,10.73
2019-05-25T17:00:43.041Z,12.27
2019-05-25T17:07:10.610Z,11.20
2019-05-25T17:09:41.929Z,8.60
2019-05-25T17:12:12.923Z,6.20
2019-05-25T17:15:02.914Z,8.30
2019-05-25T17:17:40.903Z,7.70
2019-05-25T17:20:14.619Z,9.00
2019-05-25T17:23:13.171Z,9.63
2019-05-25T17:28:47.112Z,10.87
2019-05-25T17:31:18.600Z,10.23
2019-05-25T17:33:50.045Z,9.40
2019-05-25T17:36:42.400Z,9.50
2019-05-25T17:39:33.363Z,9.13
2019-05-25T17:42:24.395Z,9.00
2019-05-25T17:45:15.043Z,11.73
2019-05-25T17:47:53.381Z,10.63
2019-05-25T17:50:43.156Z,10.43
2019-05-25T17:53:30.949Z,11.00
2019-05-25T17:56:08.875Z,8.57
2019-05-25T17:58:59.462Z,9.37
2019-05-25T18:01:49.968Z,8.93
2019-05-25T18:04:42.101Z,8.03
2019-05-25T18:07:37.845Z,9.70
2019-05-25T18:09:58.058Z,19.57
2019-05-25T18:12:29.610Z,12.40
2019-05-25T18:15:12.073Z,10.73
2019-05-25T18:18:21.747Z,10.57
2019-05-25T18:24:02.926Z,11.03
2019-05-25T18:26:34.272Z,8.63
2019-05-25T18:29:29.239Z,8.43
2019-05-25T18:32:19.528Z,7.33
2019-05-25T18:35:30.247Z,7.33
2019-05-25T18:38:20.719Z,9.93
2019-05-25T18:41:10.958Z,10.27
2019-05-25T18:43:41.951Z,11.67
2019-05-25T18:46:16.236Z,9.73
2019-05-25T18:49:07.883Z,8.53
2019-05-25T18:58:16.050Z,10.60
2019-05-25T19:04:19.835Z,11.80
2019-05-25T19:06:57.281Z,10.53
2019-05-25T19:09:39.158Z,12.10
2019-05-25T19:12:21.243Z,12.57
2019-05-25T19:14:52.656Z,14.83
2019-05-25T19:17:36.525Z,14.03
2019-05-25T19:20:20.667Z,16.70
2019-05-25T19:23:15.219Z,14.93
2019-05-25T19:26:04.841Z,13.83
2019-05-25T19:28:47.347Z,15.80
2019-05-25T19:31:28.988Z,14.40
2019-05-25T19:36:56.925Z,21.60
2019-05-25T19:39:38.341Z,14.33
2019-05-25T19:42:20.301Z,13.53
2019-05-25T19:45:02.751Z,14.87
2019-05-25T19:47:45.226Z,18.60
2019-05-25T19:50:27.234Z,17.57
2019-05-25T19:53:12.256Z,18.90
2019-05-25T19:58:53.519Z,20.07
2019-05-25T20:01:35.001Z,17.87
2019-05-25T20:04:17.624Z,23.93
2019-05-25T20:06:49.476Z,19.53
2019-05-25T20:09:20.694Z,22.20
2019-05-25T20:11:57.800Z,20.33
2019-05-25T20:14:35.329Z,18.90
2019-05-25T20:17:29.796Z,19.63
2019-05-25T20:20:23.870Z,20.87
2019-05-25T20:23:19.644Z,17.00
2019-05-25T20:25:53.341Z,12.93
2019-05-25T20:28:43.888Z,14.50
2019-05-25T20:34:21.126Z,14.37
2019-05-25T20:37:11.436Z,17.97
2019-05-25T20:39:43.381Z,14.73
2019-05-25T20:42:16.896Z,16.93
2019-05-25T20:44:49.375Z,17.30
2019-05-25T20:47:24.580Z,15.27
2019-05-25T20:50:14.731Z,19.57
2019-05-25T20:53:05.079Z,13.73
2019-05-25T20:55:55.542Z,16.00
2019-05-25T20:58:47.936Z,14.47
2019-05-25T21:01:19.418Z,14.60
2019-05-25T21:04:09.147Z,15.47
2019-05-25T21:06:59.815Z,15.10
2019-05-25T21:09:50.399Z,15.47
2019-05-25T21:12:42.734Z,14.23
2019-05-25T21:15:34.493Z,13.30
2019-05-25T21:18:44.444Z,14.10
2019-05-25T21:21:15.662Z,13.47
2019-05-25T21:24:05.812Z,13.73
2019-05-25T21:26:56.216Z,16.10
2019-05-25T21:29:27.654Z,15.07
2019-05-25T21:32:19.409Z,15.73
2019-05-25T21:34:50.748Z,20.90
2019-05-25T21:37:40.462Z,17.80
2019-05-25T21:40:12.803Z,21.60
2019-05-25T21:43:02.628Z,18.33
2019-05-25T21:45:52.480Z,14.10
2019-05-25T21:48:50.162Z,13.80
2019-05-25T21:51:39.889Z,12.90
2019-05-25T21:54:29.894Z,12.93
2019-05-25T21:57:01.747Z,11.50
2019-05-25T21:59:51.452Z,12.53
2019-05-25T22:02:22.362Z,10.10
2019-05-25T22:05:12.153Z,9.40
2019-05-25T22:08:02.033Z,11.27
2019-05-25T22:10:43.947Z,9.40
2019-05-25T22:18:58.279Z,8.90
2019-05-25T22:21:39.075Z,12.63
2019-05-25T22:24:30.324Z,11.67
2019-05-25T22:27:20.922Z,11.20
2019-05-25T22:29:53.881Z,9.83
2019-05-25T22:32:43.721Z,8.73
2019-05-25T22:35:33.527Z,7.73
2019-05-25T22:38:23.180Z,7.80
2019-05-25T22:41:12.826Z,8.43
2019-05-25T22:44:03.189Z,9.70
2019-05-25T22:46:52.829Z,11.30
2019-05-25T22:49:42.972Z,11.40
2019-05-25T22:52:13.905Z,9.63
2019-05-25T22:54:44.693Z,10.73
2019-05-25T22:57:34.399Z,11.33
2019-05-25T23:00:06.669Z,14.40
2019-05-25T23:02:56.693Z,13.40
2019-05-25T23:05:30.447Z,11.60
2019-05-25T23:08:20.087Z,11.03
2019-05-25T23:11:01.008Z,10.73
2019-05-25T23:13:33.384Z,11.10
2019-05-25T23:19:44.599Z,13.73
2019-05-25T23:23:05.424Z,12.93
2019-05-25T23:25:55.893Z,12.60
2019-05-25T23:28:47.518Z,14.10
2019-05-25T23:31:37.385Z,14.97
2019-05-25T23:34:08.540Z,17.40
2019-05-25T23:37:14.064Z,16.60
2019-05-25T23:39:52.969Z,16.57
2019-05-25T23:42:24.756Z,21.33
2019-05-25T23:45:14.817Z,14.67
2019-05-25T23:47:48.051Z,15.53
2019-05-25T23:50:39.881Z,15.37
2019-05-25T23:53:29.769Z,18.63
2019-05-25T23:56:00.482Z,18.63
2019-05-25T23:58:51.397Z,18.13
